Main page
METAR-TAF:

METAR-TAF

Airports :

Columbia Metropolitan Airport

Columbia, South Carolina, United States

latitude: 33-56-31N, longitude: 081-07-05W, elevation: 233 ft

Current weather observation

The report was made 45 minutes ago, at 18:56 UTC
Wind 9 mph from the Northeast, varying between North and East
Temperature 84°F
Humidity 40%
Pressure 30.12 in. Hg
Visibility: 10 miles
Clear sky

METAR: KCAE 031856Z 04008KT 010V080 10SM CLR 29/14 A3012 RMK AO2 SLP197 T02940144

Time: 15:41 (19:41 UTC)

Forecast

The report was made 2 hours and 19 minutes ago, at 17:22 UTC
Forecast valid from 03 at 18 UTC to 04 at 18 UTC
Wind 9 mph from the East/Northeast
Visibility: 6 miles
Few clouds at a height of 5000 ft
From 04 at 0000 UTC
Wind 3 mph from variable directions
Visibility: 6 miles
Clear sky
From 04 at 1500 UTC
Wind 8 mph from the East/Northeast
Visibility: 6 miles
Few clouds at a height of 5000 ft

TAF: KCAE 031722Z 0318/0418 06008KT P6SM FEW050 FM040000 VRB03KT P6SM SKC FM041500 06007KT P6SM FEW050

Weather observations and forecasts of more than 4000 airports (METAR and TAF reports).

The available stations are represented by yellow and red dots on the map.

Hover mouse over dot to see the name of the station.

Then click to see weather observations and forecasts.

To change the map : click on the green buttons with a black cross to zoom in, on the green button with a dash to zoom out, or on the green arrows for adjacent maps.


METAR-TAF: